createdAt,value
2018-11-06T00:01:25.769Z,91.80
2018-11-06T00:03:59.196Z,91.80
2018-11-06T00:06:27.060Z,91.90
2018-11-06T00:08:54.835Z,91.80
2018-11-06T00:11:22.531Z,91.80
2018-11-06T00:13:50.334Z,91.70
2018-11-06T00:16:18.068Z,91.20
2018-11-06T00:18:45.928Z,91.00
2018-11-06T00:21:14.411Z,90.90
2018-11-06T00:23:42.163Z,91.10
2018-11-06T00:26:09.919Z,91.30
2018-11-06T00:28:37.599Z,91.60
2018-11-06T00:31:05.497Z,92.20
2018-11-06T00:33:33.212Z,92.50
2018-11-06T00:36:00.984Z,92.60
2018-11-06T00:38:28.808Z,93.10
2018-11-06T00:40:56.590Z,93.40
2018-11-06T00:43:24.348Z,93.60
2018-11-06T00:45:52.137Z,93.40
2018-11-06T00:48:19.931Z,93.50
2018-11-06T00:50:47.622Z,93.80
2018-11-06T00:53:15.400Z,93.90
2018-11-06T00:55:43.127Z,94.00
2018-11-06T00:58:10.888Z,94.00
2018-11-06T01:00:39.427Z,93.80
2018-11-06T01:03:07.164Z,93.80
2018-11-06T01:05:35.514Z,93.70
2018-11-06T01:08:03.274Z,93.60
2018-11-06T01:10:31.021Z,93.60
2018-11-06T01:12:58.872Z,93.30
2018-11-06T01:15:26.648Z,92.60
2018-11-06T01:17:54.375Z,92.20
2018-11-06T01:20:22.152Z,92.10
2018-11-06T01:22:49.896Z,92.30
2018-11-06T01:25:17.653Z,92.20
2018-11-06T01:27:45.332Z,92.10
2018-11-06T01:30:16.497Z,92.60
2018-11-06T01:32:44.904Z,92.90
2018-11-06T01:35:13.389Z,93.20
2018-11-06T01:37:41.912Z,93.30
2018-11-06T01:40:11.805Z,93.40
2018-11-06T01:42:40.915Z,93.80
2018-11-06T01:45:10.615Z,94.50
2018-11-06T01:47:38.821Z,94.90
2018-11-06T01:50:07.892Z,95.20
2018-11-06T01:52:35.676Z,95.40
2018-11-06T01:55:03.574Z,95.40
2018-11-06T01:57:31.415Z,95.20
2018-11-06T01:59:59.153Z,95.00
2018-11-06T02:02:27.000Z,94.70
2018-11-06T02:04:54.770Z,94.40
2018-11-06T02:07:22.510Z,94.00
2018-11-06T02:09:50.323Z,93.60
2018-11-06T02:12:18.107Z,93.10
2018-11-06T02:14:45.890Z,92.70
2018-11-06T02:17:13.661Z,92.50
2018-11-06T02:19:41.556Z,92.40
2018-11-06T02:22:09.336Z,92.40
2018-11-06T02:24:38.028Z,92.40
2018-11-06T02:27:05.849Z,92.40
2018-11-06T02:29:33.658Z,92.20
2018-11-06T02:32:01.429Z,92.00
2018-11-06T02:34:29.168Z,91.50
2018-11-06T02:36:57.877Z,91.40
2018-11-06T02:39:25.639Z,91.50
2018-11-06T02:41:53.342Z,91.60
2018-11-06T02:44:21.079Z,91.50
2018-11-06T02:46:48.851Z,91.70
2018-11-06T02:49:16.644Z,91.70
2018-11-06T02:51:44.315Z,92.10
2018-11-06T02:54:12.037Z,92.40
2018-11-06T02:56:39.754Z,92.50
2018-11-06T02:59:07.745Z,92.60
2018-11-06T03:01:35.695Z,92.70
2018-11-06T03:04:03.570Z,92.90
2018-11-06T03:06:31.325Z,92.90
2018-11-06T03:08:59.099Z,92.70
2018-11-06T03:11:26.821Z,92.50
2018-11-06T03:13:54.591Z,92.40
2018-11-06T03:16:22.305Z,92.40
2018-11-06T03:18:50.013Z,92.40
2018-11-06T03:21:18.702Z,92.40
2018-11-06T03:23:46.565Z,92.30
2018-11-06T03:26:14.313Z,92.30
2018-11-06T03:28:42.057Z,92.20
2018-11-06T03:31:09.789Z,92.30
2018-11-06T03:33:37.518Z,92.30
2018-11-06T03:36:05.555Z,92.20
2018-11-06T03:38:33.240Z,92.00
2018-11-06T03:41:00.982Z,92.00
2018-11-06T03:43:28.704Z,91.70
2018-11-06T03:45:56.541Z,91.70
2018-11-06T03:48:24.289Z,91.70
2018-11-06T03:50:52.012Z,91.70
2018-11-06T03:53:19.687Z,91.70
2018-11-06T03:55:47.381Z,91.70
2018-11-06T03:58:15.116Z,91.70
2018-11-06T04:00:42.792Z,92.60
2018-11-06T04:03:10.549Z,92.80
2018-11-06T04:05:38.292Z,92.90
2018-11-06T04:08:06.062Z,92.90
2018-11-06T04:10:33.831Z,92.60
2018-11-06T04:13:01.656Z,93.20
2018-11-06T04:15:29.402Z,93.40
2018-11-06T04:17:57.147Z,93.20
2018-11-06T04:20:24.892Z,93.50
2018-11-06T04:22:52.644Z,93.60
2018-11-06T04:25:20.450Z,93.80
2018-11-06T04:27:48.145Z,93.60
2018-11-06T04:30:16.120Z,93.40
2018-11-06T04:32:43.844Z,93.20
2018-11-06T04:35:12.204Z,93.10
2018-11-06T04:37:40.816Z,93.10
2018-11-06T04:40:10.778Z,93.20
2018-11-06T04:42:38.499Z,93.30
2018-11-06T04:45:08.258Z,93.00
2018-11-06T04:47:35.992Z,93.00
2018-11-06T04:50:04.102Z,92.90
2018-11-06T04:52:31.978Z,92.90
2018-11-06T04:54:59.829Z,92.80
2018-11-06T04:57:27.628Z,92.60
2018-11-06T04:59:55.433Z,92.50
2018-11-06T05:02:23.233Z,92.40
2018-11-06T05:04:50.948Z,92.80
2018-11-06T05:07:18.752Z,92.70
2018-11-06T05:09:46.577Z,92.60
2018-11-06T05:12:14.433Z,92.70
2018-11-06T05:14:42.305Z,92.50
2018-11-06T05:17:10.068Z,92.50
2018-11-06T05:19:37.936Z,92.80
2018-11-06T05:22:06.333Z,92.80
2018-11-06T05:24:34.211Z,93.70
2018-11-06T05:27:02.749Z,94.60
2018-11-06T05:29:32.635Z,94.30
2018-11-06T05:32:00.538Z,93.00
2018-11-06T05:34:28.385Z,91.70
2018-11-06T05:36:56.108Z,91.20
2018-11-06T05:39:23.870Z,91.40
2018-11-06T05:41:51.608Z,91.90
2018-11-06T05:44:19.427Z,93.30
2018-11-06T05:46:47.347Z,93.50
2018-11-06T05:49:16.548Z,93.40
2018-11-06T05:51:44.404Z,93.60
2018-11-06T05:54:12.237Z,93.90
2018-11-06T05:56:40.350Z,94.00
2018-11-06T05:59:08.109Z,94.20
2018-11-06T06:01:35.828Z,94.70
2018-11-06T06:04:03.683Z,94.90
2018-11-06T06:06:31.388Z,94.90
2018-11-06T06:08:59.228Z,94.80
2018-11-06T06:11:27.006Z,94.10
2018-11-06T06:13:57.760Z,93.80
2018-11-06T06:16:25.509Z,93.80
2018-11-06T06:18:53.240Z,93.80
2018-11-06T06:21:20.976Z,93.50
2018-11-06T06:23:48.732Z,93.80
2018-11-06T06:26:16.545Z,94.10
2018-11-06T06:28:44.468Z,94.60
2018-11-06T06:31:12.964Z,94.60
2018-11-06T06:33:40.733Z,94.40
2018-11-06T06:36:08.477Z,94.60
2018-11-06T06:38:36.245Z,94.80
2018-11-06T06:41:04.395Z,94.50
2018-11-06T06:43:32.077Z,94.80
2018-11-06T06:45:59.848Z,95.10
2018-11-06T06:48:27.635Z,93.70
2018-11-06T06:50:55.347Z,91.70
2018-11-06T06:53:23.056Z,90.20
2018-11-06T06:55:50.914Z,88.60
2018-11-06T06:58:18.771Z,87.10
2018-11-06T07:00:46.573Z,86.20
2018-11-06T07:03:14.331Z,87.10
2018-11-06T07:05:42.083Z,88.40
2018-11-06T07:08:09.799Z,87.30
2018-11-06T07:10:37.482Z,86.40
2018-11-06T07:13:05.325Z,85.30
2018-11-06T07:15:33.017Z,86.20
2018-11-06T07:18:00.904Z,86.90
2018-11-06T07:20:28.597Z,88.10
2018-11-06T07:22:56.399Z,89.20
2018-11-06T07:25:24.082Z,88.40
2018-11-06T07:27:51.875Z,87.90
2018-11-06T07:30:20.912Z,86.90
2018-11-06T07:32:48.829Z,85.80
2018-11-06T07:35:17.459Z,85.30
2018-11-06T07:37:45.310Z,84.30
2018-11-06T07:40:14.371Z,84.70
2018-11-06T07:42:42.283Z,84.30
2018-11-06T07:45:12.566Z,79.70
2018-11-06T07:47:41.330Z,73.30
2018-11-06T07:50:09.835Z,66.80
2018-11-06T07:52:38.223Z,59.30
2018-11-06T07:55:07.459Z,52.90
2018-11-06T07:57:36.017Z,48.80
2018-11-06T08:00:05.921Z,43.60
2018-11-06T08:02:33.710Z,38.90
2018-11-06T08:05:01.401Z,36.00
2018-11-06T08:07:29.297Z,33.40
2018-11-06T08:09:57.947Z,31.00
2018-11-06T08:12:25.993Z,29.10
2018-11-06T08:14:53.857Z,28.10
2018-11-06T08:17:21.613Z,27.40
2018-11-06T08:19:49.332Z,27.60
2018-11-06T08:22:17.094Z,26.60
2018-11-06T08:24:44.849Z,24.90
2018-11-06T08:27:12.574Z,23.60
2018-11-06T08:29:40.302Z,23.20
2018-11-06T08:32:08.407Z,22.70
2018-11-06T08:34:36.004Z,21.80
2018-11-06T08:37:03.890Z,21.80
2018-11-06T08:39:31.669Z,21.90
2018-11-06T08:41:59.441Z,22.00
2018-11-06T08:44:27.223Z,21.50
2018-11-06T08:46:54.993Z,21.20
2018-11-06T08:49:23.065Z,21.80
2018-11-06T08:51:51.529Z,21.70
2018-11-06T08:54:19.247Z,21.80
2018-11-06T08:56:46.978Z,23.00
2018-11-06T08:59:14.764Z,24.10
2018-11-06T09:01:42.662Z,25.10
2018-11-06T09:04:10.356Z,25.30
2018-11-06T09:06:38.202Z,24.20
2018-11-06T09:09:07.312Z,23.90
2018-11-06T09:11:35.068Z,24.40
2018-11-06T09:14:02.849Z,24.70
2018-11-06T09:16:30.552Z,25.30
2018-11-06T09:18:58.335Z,26.70
2018-11-06T09:21:26.046Z,28.20
2018-11-06T09:23:53.764Z,28.70
2018-11-06T09:26:21.509Z,29.30
2018-11-06T09:28:49.244Z,30.90
2018-11-06T09:31:17.031Z,32.10
2018-11-06T09:33:44.858Z,31.90
2018-11-06T09:36:12.605Z,33.30
2018-11-06T09:38:40.452Z,33.60
2018-11-06T09:41:08.231Z,34.10
2018-11-06T09:43:36.023Z,31.90
2018-11-06T09:46:03.815Z,31.90
2018-11-06T09:48:31.649Z,31.00
2018-11-06T09:50:59.396Z,32.50
2018-11-06T09:53:27.212Z,33.40
2018-11-06T09:55:54.936Z,34.80
2018-11-06T09:58:22.721Z,35.30
2018-11-06T10:00:50.516Z,35.70
2018-11-06T10:03:18.648Z,37.30
2018-11-06T10:05:46.540Z,37.30
2018-11-06T10:08:14.264Z,35.70
2018-11-06T10:10:41.989Z,35.90
2018-11-06T10:13:09.829Z,36.20
2018-11-06T10:15:37.600Z,37.10
2018-11-06T10:18:05.491Z,36.90
2018-11-06T10:20:33.249Z,38.00
2018-11-06T10:23:01.023Z,38.50
2018-11-06T10:25:28.856Z,38.50
2018-11-06T10:27:56.585Z,36.50
2018-11-06T10:30:24.360Z,36.50
2018-11-06T10:32:52.126Z,36.80
2018-11-06T10:35:19.888Z,36.20
2018-11-06T10:37:47.660Z,37.40
2018-11-06T10:40:17.199Z,37.70
2018-11-06T10:42:45.357Z,37.40
2018-11-06T10:45:13.118Z,37.40
2018-11-06T10:47:40.920Z,38.30
2018-11-06T10:50:10.313Z,38.90
2018-11-06T10:52:38.106Z,40.30
2018-11-06T10:55:06.842Z,42.60
2018-11-06T10:57:35.170Z,42.60
2018-11-06T11:00:02.960Z,43.80
2018-11-06T11:02:36.444Z,45.20
2018-11-06T11:05:04.874Z,46.10
2018-11-06T11:07:32.765Z,46.70
2018-11-06T11:10:00.652Z,47.90
2018-11-06T11:12:28.748Z,48.20
2018-11-06T11:14:57.391Z,49.70
2018-11-06T11:17:26.206Z,49.60
2018-11-06T11:19:54.002Z,48.10
2018-11-06T11:22:22.546Z,47.60
2018-11-06T11:24:50.406Z,47.60
2018-11-06T11:27:18.382Z,47.90
2018-11-06T11:29:46.327Z,46.50
2018-11-06T11:32:14.180Z,47.20
2018-11-06T11:34:42.076Z,45.90
2018-11-06T11:37:09.989Z,45.90
2018-11-06T11:39:37.761Z,44.90
2018-11-06T11:42:36.911Z,42.90
2018-11-06T11:45:06.269Z,42.70
2018-11-06T11:47:34.202Z,39.50
2018-11-06T11:50:02.209Z,38.20
2018-11-06T11:52:30.097Z,39.50
2018-11-06T11:54:58.039Z,40.00
2018-11-06T11:57:26.289Z,39.80
2018-11-06T11:59:54.276Z,40.60
2018-11-06T12:02:22.419Z,41.10
2018-11-06T12:04:50.618Z,40.80
2018-11-06T12:07:18.485Z,40.30
2018-11-06T12:09:46.428Z,41.50
2018-11-06T12:12:14.413Z,40.90
2018-11-06T12:14:42.260Z,40.30
2018-11-06T12:17:10.244Z,39.20
2018-11-06T12:19:38.892Z,39.80
2018-11-06T12:22:07.576Z,40.10
2018-11-06T12:24:35.527Z,39.70
2018-11-06T12:27:03.275Z,41.20
2018-11-06T12:29:31.927Z,41.40
2018-11-06T12:32:00.013Z,39.70
2018-11-06T12:34:27.860Z,38.20
2018-11-06T12:36:57.259Z,41.20
2018-11-06T12:39:25.143Z,40.80
2018-11-06T12:41:52.948Z,39.50
2018-11-06T12:44:21.183Z,40.30
2018-11-06T12:46:49.606Z,41.40
2018-11-06T12:49:18.745Z,42.30
2018-11-06T12:51:46.840Z,40.90
2018-11-06T12:54:14.638Z,41.50
2018-11-06T12:56:42.411Z,41.40
2018-11-06T12:59:10.145Z,41.70
2018-11-06T13:01:37.860Z,42.60
2018-11-06T13:04:05.550Z,44.00
2018-11-06T13:06:33.357Z,43.60
2018-11-06T13:09:01.073Z,43.80
2018-11-06T13:11:28.820Z,44.70
2018-11-06T13:13:56.814Z,44.10
2018-11-06T13:16:24.760Z,45.00
2018-11-06T13:18:52.539Z,45.50
2018-11-06T13:21:21.534Z,46.40
2018-11-06T13:23:49.296Z,46.20
2018-11-06T13:26:18.043Z,46.70
2018-11-06T13:28:45.863Z,46.80
2018-11-06T13:31:14.903Z,47.30
2018-11-06T13:33:42.694Z,46.70
2018-11-06T13:36:11.344Z,46.40
2018-11-06T13:38:39.093Z,46.20
2018-11-06T13:41:07.071Z,46.50
2018-11-06T13:43:34.958Z,47.60
2018-11-06T13:46:02.529Z,48.10
2018-11-06T13:48:30.340Z,47.90
2018-11-06T13:50:58.116Z,48.10
2018-11-06T13:53:25.821Z,48.40
2018-11-06T13:55:53.614Z,48.80
2018-11-06T13:58:21.356Z,48.80
2018-11-06T14:00:49.071Z,49.60
2018-11-06T14:03:16.989Z,49.40
2018-11-06T14:05:44.753Z,49.00
2018-11-06T14:08:12.673Z,48.70
2018-11-06T14:10:41.154Z,48.20
2018-11-06T14:13:08.892Z,48.50
2018-11-06T14:15:37.403Z,47.60
2018-11-06T14:18:05.158Z,48.10
2018-11-06T14:20:32.870Z,47.30
2018-11-06T14:23:00.761Z,47.50
2018-11-06T14:25:28.490Z,49.10
2018-11-06T14:27:56.268Z,49.00
2018-11-06T14:30:24.018Z,49.60
2018-11-06T14:32:51.737Z,49.40
2018-11-06T14:35:19.982Z,51.10
2018-11-06T14:37:48.106Z,51.10
2018-11-06T14:40:16.490Z,52.20
2018-11-06T14:42:44.690Z,49.40
2018-11-06T14:45:13.649Z,48.50
2018-11-06T14:47:41.532Z,45.30
2018-11-06T14:50:09.903Z,43.80
2018-11-06T14:52:37.764Z,45.80
2018-11-06T14:55:06.801Z,44.00
2018-11-06T14:57:34.565Z,44.00
2018-11-06T15:00:02.353Z,45.90
2018-11-06T15:02:30.135Z,46.10
2018-11-06T15:04:58.063Z,44.70
2018-11-06T15:07:25.806Z,45.00
2018-11-06T15:09:53.561Z,45.50
2018-11-06T15:12:21.449Z,48.10
2018-11-06T15:14:49.223Z,51.60
2018-11-06T15:17:17.060Z,50.00
2018-11-06T15:19:45.205Z,48.80
2018-11-06T15:22:13.144Z,48.70
2018-11-06T15:24:41.016Z,50.00
2018-11-06T15:27:09.321Z,54.20
2018-11-06T15:29:46.869Z,56.70
2018-11-06T15:32:14.798Z,56.40
2018-11-06T15:34:42.689Z,57.00
2018-11-06T15:37:11.893Z,55.80
2018-11-06T15:39:39.696Z,55.70
2018-11-06T15:42:07.576Z,54.80
2018-11-06T15:44:35.333Z,55.20
2018-11-06T15:47:03.203Z,57.70
2018-11-06T15:49:31.187Z,58.60
2018-11-06T15:52:00.512Z,60.10
2018-11-06T15:54:28.510Z,60.70
2018-11-06T15:56:56.613Z,61.80
2018-11-06T15:59:24.377Z,64.00
2018-11-06T16:01:52.748Z,64.40
2018-11-06T16:04:20.671Z,65.90
2018-11-06T16:06:48.368Z,66.40
2018-11-06T16:09:16.202Z,67.90
2018-11-06T16:11:43.952Z,68.90
2018-11-06T16:14:13.368Z,70.00
2018-11-06T16:16:41.963Z,71.50
2018-11-06T16:19:09.761Z,72.00
2018-11-06T16:21:37.592Z,71.70
2018-11-06T16:24:05.652Z,72.00
2018-11-06T16:26:33.409Z,72.00
2018-11-06T16:29:01.151Z,72.20
2018-11-06T16:31:29.041Z,71.80
2018-11-06T16:33:57.155Z,72.40
2018-11-06T16:36:25.212Z,72.40
2018-11-06T16:38:53.301Z,73.30
2018-11-06T16:41:21.171Z,74.60
2018-11-06T16:43:50.099Z,76.10
2018-11-06T16:46:18.005Z,76.90
2018-11-06T16:48:45.756Z,78.20
2018-11-06T16:51:13.505Z,79.10
2018-11-06T16:53:41.241Z,79.50
2018-11-06T16:56:08.976Z,79.90
2018-11-06T16:58:36.830Z,80.20
2018-11-06T17:01:05.892Z,80.00
2018-11-06T17:03:33.529Z,81.00
2018-11-06T17:06:01.330Z,81.00
2018-11-06T17:08:29.209Z,81.20
2018-11-06T17:10:56.984Z,81.00
2018-11-06T17:13:24.790Z,81.20
2018-11-06T17:15:52.619Z,81.20
2018-11-06T17:18:20.429Z,81.20
2018-11-06T17:20:48.212Z,81.40
2018-11-06T17:23:16.204Z,81.40
2018-11-06T17:25:44.232Z,81.70
2018-11-06T17:28:11.883Z,81.90
2018-11-06T17:30:39.691Z,82.50
2018-11-06T17:33:07.542Z,82.80
2018-11-06T17:35:36.345Z,82.80
2018-11-06T17:38:04.377Z,82.80
2018-11-06T17:40:32.247Z,82.80
2018-11-06T17:43:00.001Z,83.00
2018-11-06T17:45:27.819Z,82.80
2018-11-06T17:47:55.621Z,82.80
2018-11-06T17:50:23.408Z,83.40
2018-11-06T17:52:51.247Z,83.00
2018-11-06T17:55:20.889Z,82.70
2018-11-06T17:57:48.713Z,82.10
2018-11-06T18:00:18.585Z,81.90
2018-11-06T18:02:46.917Z,81.40
2018-11-06T18:05:15.685Z,81.20
2018-11-06T18:07:43.705Z,81.20
2018-11-06T18:10:13.681Z,81.20
2018-11-06T18:12:41.543Z,80.80
2018-11-06T18:15:09.373Z,80.80
2018-11-06T18:17:38.400Z,81.00
2018-11-06T18:20:09.296Z,80.80
2018-11-06T18:22:37.453Z,80.80
2018-11-06T18:25:05.972Z,80.60
2018-11-06T18:27:33.878Z,80.80
2018-11-06T18:30:01.686Z,80.60
2018-11-06T18:32:29.522Z,80.80
2018-11-06T18:34:57.358Z,80.80
2018-11-06T18:37:25.222Z,80.60
2018-11-06T18:39:53.499Z,80.80
2018-11-06T18:42:21.316Z,80.80
2018-11-06T18:45:08.954Z,81.20
2018-11-06T18:50:19.574Z,81.50
2018-11-06T18:52:48.578Z,81.70
2018-11-06T18:55:16.773Z,81.70
2018-11-06T18:57:44.532Z,81.50
2018-11-06T19:00:14.016Z,81.20
2018-11-06T19:02:42.919Z,80.80
2018-11-06T19:05:10.742Z,81.00
2018-11-06T19:07:38.870Z,81.20
2018-11-06T19:10:08.492Z,81.40
2018-11-06T19:12:36.496Z,82.10
2018-11-06T19:15:05.937Z,81.50
2018-11-06T19:17:33.885Z,81.90
2018-11-06T19:20:01.650Z,81.70
2018-11-06T19:22:29.392Z,82.80
2018-11-06T19:24:57.175Z,82.70
2018-11-06T19:27:24.913Z,82.70
2018-11-06T19:29:53.579Z,82.70
2018-11-06T19:32:21.281Z,82.70
2018-11-06T19:34:49.042Z,83.00
2018-11-06T19:37:17.044Z,84.00
2018-11-06T19:39:44.863Z,83.80
2018-11-06T19:42:12.553Z,83.40
2018-11-06T19:44:41.256Z,84.30
2018-11-06T19:47:09.167Z,86.00
2018-11-06T19:49:37.097Z,86.60
2018-11-06T19:52:05.336Z,87.50
2018-11-06T19:54:33.146Z,87.90
2018-11-06T19:57:00.957Z,87.50
2018-11-06T19:59:28.918Z,87.10
2018-11-06T20:01:56.688Z,86.90
2018-11-06T20:04:24.423Z,86.80
2018-11-06T20:06:52.221Z,86.90
2018-11-06T20:09:19.982Z,87.30
2018-11-06T20:11:48.456Z,87.70
2018-11-06T20:14:16.166Z,87.70
2018-11-06T20:16:43.898Z,88.20
2018-11-06T20:19:12.629Z,89.70
2018-11-06T20:21:40.773Z,90.40
2018-11-06T20:24:08.856Z,90.70
2018-11-06T20:26:36.822Z,90.70
2018-11-06T20:29:04.825Z,90.50
2018-11-06T20:31:32.572Z,90.20
2018-11-06T20:34:00.742Z,90.10
2018-11-06T20:36:28.562Z,89.90
2018-11-06T20:38:56.369Z,89.00
2018-11-06T20:41:24.413Z,89.00
2018-11-06T20:43:52.123Z,89.60
2018-11-06T20:46:20.035Z,89.90
2018-11-06T20:48:47.905Z,89.00
2018-11-06T20:51:15.917Z,89.60
2018-11-06T20:53:43.901Z,89.70
2018-11-06T20:56:11.728Z,89.00
2018-11-06T20:58:39.558Z,88.10
2018-11-06T21:01:07.864Z,87.70
2018-11-06T21:03:35.644Z,88.60
2018-11-06T21:06:03.483Z,89.00
2018-11-06T21:08:31.268Z,89.40
2018-11-06T21:10:59.124Z,89.60
2018-11-06T21:13:27.040Z,89.70
2018-11-06T21:15:54.689Z,90.10
2018-11-06T21:18:22.664Z,90.30
2018-11-06T21:20:50.894Z,90.40
2018-11-06T21:23:19.071Z,90.60
2018-11-06T21:25:55.291Z,90.60
2018-11-06T21:28:25.599Z,90.40
2018-11-06T21:30:53.370Z,90.40
2018-11-06T21:33:21.339Z,90.50
2018-11-06T21:35:49.240Z,90.80
2018-11-06T21:38:17.063Z,90.70
2018-11-06T21:40:45.313Z,90.70
2018-11-06T21:43:13.212Z,90.80
2018-11-06T21:45:40.957Z,90.60
2018-11-06T21:48:08.688Z,90.40
2018-11-06T21:50:36.483Z,90.10
2018-11-06T21:53:04.525Z,90.90
2018-11-06T21:55:32.329Z,90.70
2018-11-06T21:58:00.224Z,90.20
2018-11-06T22:00:28.242Z,90.40
2018-11-06T22:02:55.910Z,91.00
2018-11-06T22:05:23.653Z,91.00
2018-11-06T22:07:51.842Z,91.00
2018-11-06T22:10:20.578Z,90.70
2018-11-06T22:12:48.584Z,90.50
2018-11-06T22:15:17.335Z,90.40
2018-11-06T22:17:45.292Z,89.90
2018-11-06T22:20:14.395Z,89.20
2018-11-06T22:22:43.276Z,89.40
2018-11-06T22:25:11.162Z,89.70
2018-11-06T22:27:38.910Z,90.60
2018-11-06T22:30:08.882Z,90.80
2018-11-06T22:32:36.633Z,90.90
2018-11-06T22:35:05.747Z,91.50
2018-11-06T22:37:33.518Z,91.70
2018-11-06T22:40:01.520Z,91.70
2018-11-06T22:42:29.307Z,91.60
2018-11-06T22:44:57.354Z,91.40
2018-11-06T22:47:25.061Z,91.20
2018-11-06T22:49:53.178Z,91.20
2018-11-06T22:52:21.100Z,91.40
2018-11-06T22:54:49.090Z,91.40
2018-11-06T22:57:16.883Z,91.20
2018-11-06T22:59:44.845Z,91.00
2018-11-06T23:02:12.626Z,90.80
2018-11-06T23:04:40.352Z,90.80
2018-11-06T23:07:12.935Z,90.60
2018-11-06T23:09:40.384Z,90.60
2018-11-06T23:12:08.080Z,90.40
2018-11-06T23:14:35.795Z,90.60
2018-11-06T23:17:03.606Z,90.60
2018-11-06T23:19:31.665Z,90.50
2018-11-06T23:21:59.399Z,90.40
2018-11-06T23:24:27.248Z,90.30
2018-11-06T23:26:55.096Z,89.90
2018-11-06T23:29:22.913Z,89.90
2018-11-06T23:31:50.897Z,90.60
2018-11-06T23:34:18.688Z,94.10
2018-11-06T23:36:46.461Z,94.10
2018-11-06T23:39:14.336Z,93.60
2018-11-06T23:41:42.030Z,92.10
2018-11-06T23:44:10.234Z,93.70
2018-11-06T23:46:37.913Z,93.50
2018-11-06T23:49:05.970Z,93.30
2018-11-06T23:51:33.740Z,93.90
2018-11-06T23:54:01.609Z,94.90
2018-11-06T23:56:29.509Z,95.30
2018-11-06T23:58:57.396Z,94.60
